»·PEaware :: UAL1022 KRDD-KPHX

UAL1022 :: KRDD-KPHX

FLIGHT INFORMATION

Flight Status: Arrived
Operator:
United Airlines
More flights by this operator :: More flights under this callsign
Pilot: Martin A. (6413)
Aircraft: BOEING 737-800
(B738)
More flights by this aircraft type
Origin: KRDD Redding Mun
United States
Destination: KPHX Phoenix Sky Harbor Intl
United States
More flights between these airports :: More routes between these airports
Route: +LIDAT / +BTY J92 BLD PRFUM WOTRO BRUSR1+
File this flight plan on PilotEdge
Remarks:
Altitude:
(Current/Filed)
39,000ft
Speed:
(Current/Filed)
410kts
Departed: 19-Apr-18 06:49 AM
Arrived: 19-Apr-18 08:26 AM
Distance/Time
Traveled:
650nm/1:37
Distance/Time
To Go:
Arrived

Flight Plot

Page will automatically refresh every two minutes.

Flight plan parsing failed; only flown route is shown


Map Options




Map Legend


Flown Route
Filed Route
Departure Airport
Arrival Airport
Navaid (VOR, NDB)
Fix

Horizontal Profiles

Position Reports

Time Latitude Longitude Heading Altitude Ground
Speed
19-Apr-18 06:32 40.505101 -122.299166 314 497ft 0kts
19-Apr-18 06:33 40.505101 -122.299166 314 497ft 0kts
19-Apr-18 06:34 40.505101 -122.299166 314 497ft 0kts
19-Apr-18 06:35 40.505101 -122.299166 314 497ft 0kts
19-Apr-18 06:36 40.505101 -122.299166 314 497ft 0kts
19-Apr-18 06:37 40.505101 -122.299166 314 497ft 0kts
19-Apr-18 06:38 40.505101 -122.299166 314 497ft 0kts
19-Apr-18 06:39 40.505101 -122.299166 314 497ft 0kts
19-Apr-18 06:40 40.505101 -122.299166 314 497ft 0kts
19-Apr-18 06:41 40.505101 -122.299166 314 497ft 0kts
19-Apr-18 06:42 40.504971 -122.298918 281 496ft 2kts
19-Apr-18 06:43 40.505284 -122.298359 182 497ft 2kts
19-Apr-18 06:44 40.505377 -122.298369 173 496ft 0kts
19-Apr-18 06:45 40.504921 -122.298304 173 496ft 8kts
19-Apr-18 06:46 40.502140 -122.296259 133 496ft 0kts
19-Apr-18 06:47 40.501362 -122.294907 21 493ft 2kts
19-Apr-18 06:48 40.510882 -122.294942 1 501ft 146kts
19-Apr-18 06:49 40.561340 -122.292377 15 2970ft 203kts
19-Apr-18 06:50 40.572320 -122.225365 137 5146ft 277kts
19-Apr-18 06:51 40.499410 -122.190972 160 8400ft 280kts
19-Apr-18 06:52 40.422973 -122.151270 133 11286ft 321kts
19-Apr-18 06:53 40.365587 -122.059375 125 14781ft 326kts
19-Apr-18 06:54 40.308193 -121.968409 125 18015ft 339kts
19-Apr-18 06:55 40.244235 -121.867052 125 20020ft 385kts
19-Apr-18 06:56 40.174134 -121.756185 125 22443ft 409kts
19-Apr-18 06:57 40.099877 -121.638525 124 24619ft 431kts
19-Apr-18 06:58 40.022264 -121.515343 123 26513ft 453kts
19-Apr-18 06:59 39.940599 -121.385564 124 28238ft 473kts
19-Apr-18 07:00 39.869930 -121.272451 126 29909ft 478kts
19-Apr-18 07:01 39.791057 -121.135465 126 32059ft 471kts
19-Apr-18 07:02 39.713446 -121.000954 126 34025ft 462kts
19-Apr-18 07:03 39.637238 -120.869460 126 35618ft 457kts
19-Apr-18 07:04 39.561165 -120.738783 127 36981ft 454kts
19-Apr-18 07:05 39.482588 -120.604428 127 37036ft 485kts
19-Apr-18 07:06 39.400014 -120.463882 127 37026ft 495kts
19-Apr-18 07:07 39.317515 -120.324096 127 37019ft 495kts
19-Apr-18 07:08 39.233757 -120.182626 127 37023ft 498kts
19-Apr-18 07:09 39.149747 -120.041245 127 37023ft 496kts
19-Apr-18 07:10 39.066279 -119.901518 127 37051ft 496kts
19-Apr-18 07:11 38.982282 -119.761559 127 37054ft 496kts
19-Apr-18 07:12 38.899044 -119.623505 127 37055ft 496kts
19-Apr-18 07:13 38.817260 -119.488474 127 37050ft 496kts
19-Apr-18 07:14 38.732780 -119.349617 128 36952ft 496kts
19-Apr-18 07:15 38.648670 -119.211738 128 36937ft 496kts
19-Apr-18 07:16 38.563825 -119.073269 127 36931ft 497kts
19-Apr-18 07:17 38.476906 -118.932190 125 36941ft 511kts
19-Apr-18 07:18 38.389174 -118.790315 125 36943ft 511kts
19-Apr-18 07:19 38.301064 -118.648501 125 36945ft 511kts
19-Apr-18 07:20 38.213094 -118.507571 125 36974ft 511kts
19-Apr-18 07:21 38.124736 -118.366666 125 36977ft 511kts
19-Apr-18 07:22 38.038326 -118.229201 126 36971ft 511kts
19-Apr-18 07:23 37.954694 -118.096684 126 36921ft 511kts
19-Apr-18 07:24 37.867044 -117.958430 126 36884ft 511kts
19-Apr-18 07:25 37.778584 -117.819544 126 36903ft 511kts
19-Apr-18 07:26 37.689514 -117.680329 126 36885ft 511kts
19-Apr-18 07:27 37.600207 -117.541348 126 36888ft 511kts
19-Apr-18 07:28 37.510394 -117.401854 131 36904ft 521kts
19-Apr-18 07:29 37.419003 -117.265719 144 36870ft 514kts
19-Apr-18 07:30 37.302138 -117.166818 152 36884ft 507kts
19-Apr-18 07:31 37.184956 -117.069183 152 36887ft 507kts
19-Apr-18 07:32 37.068402 -116.971350 154 36883ft 504kts
19-Apr-18 07:33 36.951972 -116.873666 152 36864ft 505kts
19-Apr-18 07:34 36.837340 -116.777305 152 36860ft 505kts
19-Apr-18 07:35 36.750591 -116.637799 118 36862ft 523kts
19-Apr-18 07:36 36.684188 -116.477205 119 36866ft 523kts
19-Apr-18 07:37 36.617257 -116.318530 120 36851ft 522kts
19-Apr-18 07:38 36.549005 -116.159340 120 36856ft 522kts
19-Apr-18 07:39 36.480529 -116.000221 120 36859ft 522kts
19-Apr-18 07:40 36.412383 -115.841514 120 36807ft 522kts
19-Apr-18 07:41 36.344374 -115.682691 120 36810ft 522kts
19-Apr-18 07:42 36.276677 -115.524138 120 36869ft 523kts
19-Apr-18 07:43 36.209252 -115.365778 120 36870ft 522kts
19-Apr-18 07:44 36.143000 -115.209444 120 36857ft 522kts
19-Apr-18 07:45 36.076008 -115.051083 120 36860ft 522kts
19-Apr-18 07:46 36.009083 -114.892592 120 36862ft 522kts
19-Apr-18 07:47 35.933448 -114.741398 127 36893ft 519kts
19-Apr-18 07:48 35.854777 -114.595097 126 36891ft 519kts
19-Apr-18 07:49 35.775704 -114.447130 126 36894ft 519kts
19-Apr-18 07:50 35.697353 -114.300053 127 36878ft 518kts
19-Apr-18 07:51 35.618779 -114.152070 127 36883ft 519kts
19-Apr-18 07:52 35.540256 -114.004056 126 36876ft 519kts
19-Apr-18 07:53 35.460960 -113.856033 127 33895ft 525kts
19-Apr-18 07:54 35.379180 -113.705846 127 31901ft 539kts
19-Apr-18 07:55 35.295588 -113.552394 126 31014ft 544kts
19-Apr-18 07:56 35.211531 -113.397954 126 30155ft 549kts
19-Apr-18 07:57 35.127869 -113.244286 127 29241ft 551kts
19-Apr-18 07:58 35.043820 -113.091081 127 28872ft 521kts
19-Apr-18 07:59 34.963029 -112.945405 127 29003ft 521kts
19-Apr-18 08:00 34.891358 -112.816691 127 28687ft 527kts
19-Apr-18 08:01 34.812188 -112.674881 128 25786ft 501kts
19-Apr-18 08:02 34.734462 -112.536336 128 22941ft 493kts
19-Apr-18 08:03 34.651729 -112.425259 151 20091ft 401kts
19-Apr-18 08:04 34.566648 -112.344688 151 18441ft 388kts
19-Apr-18 08:05 34.484691 -112.265430 151 17112ft 360kts
19-Apr-18 08:06 34.404219 -112.214939 178 15983ft 313kts
19-Apr-18 08:07 34.318602 -112.194905 176 14876ft 313kts
19-Apr-18 08:08 34.234161 -112.173737 175 13792ft 308kts
19-Apr-18 08:09 34.164158 -112.155981 173 11931ft 295kts
19-Apr-18 08:10 34.090277 -112.137088 172 11493ft 274kts
19-Apr-18 08:11 34.016644 -112.142963 193 11204ft 257kts
19-Apr-18 08:12 33.949695 -112.155401 192 10467ft 242kts
19-Apr-18 08:13 33.883571 -112.167154 188 9648ft 250kts
19-Apr-18 08:14 33.809188 -112.180254 187 8707ft 268kts
19-Apr-18 08:15 33.736991 -112.193568 188 7888ft 276kts
19-Apr-18 08:16 33.665475 -112.208530 190 6949ft 254kts
19-Apr-18 08:17 33.599806 -112.222295 190 6129ft 235kts
19-Apr-18 08:18 33.536445 -112.231145 177 5094ft 226kts
19-Apr-18 08:19 33.482933 -112.227992 171 4394ft 176kts
19-Apr-18 08:20 33.437041 -112.210658 129 3033ft 169kts
19-Apr-18 08:21 33.438133 -112.157446 78 2823ft 161kts
19-Apr-18 08:22 33.441320 -112.108257 93 2164ft 140kts
19-Apr-18 08:23 33.440862 -112.063053 91 1726ft 143kts
19-Apr-18 08:24 33.440819 -112.015867 90 1117ft 99kts
19-Apr-18 08:25 33.440420 -112.001184 152 1117ft 7kts
19-Apr-18 08:26 33.439039 -111.999543 90 1117ft 15kts
19-Apr-18 08:27 33.437885 -111.997519 102 1117ft 0kts

Navigation Log

Ident Type
Flight plan parsing failed, navigation log unavailable